createdAt,value
2018-12-31T00:00:55.014Z,8.63
2018-12-31T00:03:23.514Z,7.40
2018-12-31T00:05:53.395Z,6.83
2018-12-31T00:08:22.054Z,7.00
2018-12-31T00:10:50.904Z,7.67
2018-12-31T00:13:19.431Z,6.83
2018-12-31T00:15:48.169Z,6.50
2018-12-31T00:18:20.655Z,6.87
2018-12-31T00:20:49.295Z,6.83
2018-12-31T00:23:17.958Z,8.17
2018-12-31T00:25:46.847Z,7.77
2018-12-31T00:28:15.440Z,8.53
2018-12-31T00:30:44.132Z,10.43
2018-12-31T00:33:12.698Z,10.37
2018-12-31T00:35:41.390Z,8.83
2018-12-31T00:38:10.206Z,8.67
2018-12-31T00:40:39.030Z,8.63
2018-12-31T00:43:07.666Z,9.17
2018-12-31T00:45:36.522Z,9.77
2018-12-31T00:48:05.279Z,9.53
2018-12-31T00:50:33.895Z,9.20
2018-12-31T00:53:02.531Z,9.63
2018-12-31T00:55:34.973Z,9.47
2018-12-31T00:58:03.564Z,10.00
2018-12-31T01:00:35.432Z,10.13
2018-12-31T01:03:04.271Z,11.10
2018-12-31T01:05:35.939Z,11.10
2018-12-31T01:08:04.739Z,11.37
2018-12-31T01:10:33.552Z,11.03
2018-12-31T01:13:02.231Z,11.03
2018-12-31T01:15:31.150Z,12.43
2018-12-31T01:18:00.847Z,11.00
2018-12-31T01:20:29.634Z,10.57
2018-12-31T01:22:58.216Z,10.53
2018-12-31T01:25:26.764Z,11.57
2018-12-31T01:27:55.664Z,12.40
2018-12-31T01:30:28.421Z,10.83
2018-12-31T01:32:57.007Z,11.77
2018-12-31T01:35:25.781Z,12.47
2018-12-31T01:37:54.631Z,12.17
2018-12-31T01:40:24.410Z,13.87
2018-12-31T01:42:53.099Z,12.47
2018-12-31T01:45:21.804Z,12.10
2018-12-31T01:47:50.484Z,12.33
2018-12-31T01:50:21.208Z,13.10
2018-12-31T01:52:50.022Z,11.97
2018-12-31T02:36:50.788Z,15.40
2018-12-31T02:39:19.577Z,13.80
2018-12-31T02:41:48.198Z,12.33
2018-12-31T02:44:17.124Z,12.50
2018-12-31T02:46:45.646Z,12.93
2018-12-31T02:49:16.876Z,12.87
2018-12-31T02:51:45.382Z,14.37
2018-12-31T02:54:14.153Z,12.27
2018-12-31T02:56:47.478Z,12.40
2018-12-31T02:59:16.091Z,12.00
2018-12-31T03:01:45.391Z,13.03
2018-12-31T03:04:14.083Z,12.63
2018-12-31T03:06:42.546Z,12.67
2018-12-31T03:09:11.006Z,11.40
2018-12-31T03:11:39.542Z,13.60
2018-12-31T03:14:08.119Z,13.50
2018-12-31T03:16:36.666Z,11.67
2018-12-31T03:19:05.182Z,12.20
2018-12-31T03:21:33.650Z,12.73
2018-12-31T03:24:02.231Z,11.53
2018-12-31T03:26:30.861Z,13.10
2018-12-31T03:28:59.366Z,11.70
2018-12-31T03:31:27.862Z,11.33
2018-12-31T03:33:56.502Z,11.80
2018-12-31T03:36:25.240Z,10.33
2018-12-31T03:38:53.892Z,11.43
2018-12-31T03:41:22.446Z,9.77
2018-12-31T03:43:50.993Z,9.80
2018-12-31T03:46:19.542Z,9.53
2018-12-31T03:48:48.055Z,9.90
2018-12-31T03:51:16.636Z,9.07
2018-12-31T03:53:45.467Z,9.33
2018-12-31T03:56:14.102Z,8.67
2018-12-31T03:58:42.795Z,8.70
2018-12-31T04:01:11.309Z,8.47
2018-12-31T04:03:39.887Z,8.10
2018-12-31T04:06:08.454Z,8.37
2018-12-31T04:08:37.042Z,7.70
2018-12-31T04:11:05.662Z,7.83
2018-12-31T04:13:34.200Z,7.50
2018-12-31T04:16:02.925Z,7.70
2018-12-31T04:18:31.574Z,8.00
2018-12-31T04:21:00.163Z,7.47
2018-12-31T04:23:28.862Z,7.60
2018-12-31T04:25:57.527Z,7.40
2018-12-31T04:28:26.065Z,7.80
2018-12-31T04:30:54.593Z,7.10
2018-12-31T04:33:23.242Z,7.20
2018-12-31T04:35:51.957Z,6.50
2018-12-31T04:38:20.571Z,6.73
2018-12-31T04:40:49.026Z,6.40
2018-12-31T04:43:17.550Z,6.73
2018-12-31T04:45:46.073Z,6.13
2018-12-31T04:48:14.669Z,6.73
2018-12-31T04:50:43.175Z,6.23
2018-12-31T04:53:12.769Z,6.13
2018-12-31T04:55:44.525Z,6.43
2018-12-31T04:58:12.128Z,6.53
2018-12-31T05:00:40.684Z,6.40
2018-12-31T05:03:09.203Z,6.13
2018-12-31T05:05:37.722Z,6.33
2018-12-31T05:08:06.460Z,6.43
2018-12-31T05:10:35.198Z,6.80
2018-12-31T05:13:03.792Z,6.77
2018-12-31T05:15:32.370Z,6.20
2018-12-31T05:18:01.119Z,6.20
2018-12-31T05:20:29.958Z,5.57
2018-12-31T05:22:58.573Z,5.50
2018-12-31T05:25:27.187Z,5.77
2018-12-31T05:27:55.716Z,5.40
2018-12-31T05:30:24.228Z,5.57
2018-12-31T05:32:53.752Z,5.63
2018-12-31T05:35:22.436Z,5.60
2018-12-31T05:37:51.323Z,5.23
2018-12-31T05:40:20.900Z,5.17
2018-12-31T05:42:49.513Z,5.60
2018-12-31T05:45:18.277Z,5.80
2018-12-31T05:47:46.831Z,5.53
2018-12-31T05:50:15.452Z,5.50
2018-12-31T05:52:46.306Z,5.63
2018-12-31T05:55:14.876Z,5.40
2018-12-31T05:57:43.417Z,5.60
2018-12-31T06:00:12.281Z,5.30
2018-12-31T06:02:40.801Z,5.90
2018-12-31T06:05:10.269Z,5.57
2018-12-31T06:07:38.919Z,5.47
2018-12-31T06:10:07.456Z,5.47
2018-12-31T06:12:38.317Z,5.40
2018-12-31T06:15:06.842Z,6.27
2018-12-31T06:17:35.322Z,5.40
2018-12-31T06:20:03.879Z,5.73
2018-12-31T06:22:32.436Z,5.50
2018-12-31T06:25:02.073Z,5.03
2018-12-31T06:27:30.689Z,5.43
2018-12-31T06:29:59.397Z,5.40
2018-12-31T06:32:27.974Z,5.67
2018-12-31T06:34:56.502Z,5.40
2018-12-31T06:37:25.138Z,5.87
2018-12-31T06:39:53.860Z,6.10
2018-12-31T06:42:22.458Z,5.93
2018-12-31T06:44:51.286Z,5.80
2018-12-31T06:47:19.873Z,5.83
2018-12-31T06:49:48.486Z,6.30
2018-12-31T06:52:19.134Z,6.47
2018-12-31T06:54:47.790Z,6.30
2018-12-31T06:57:16.556Z,5.97
2018-12-31T06:59:45.067Z,6.37
2018-12-31T07:02:13.670Z,7.00
2018-12-31T07:04:42.397Z,7.00
2018-12-31T07:07:11.009Z,6.50
2018-12-31T07:09:39.594Z,7.27
2018-12-31T07:12:08.058Z,7.10
2018-12-31T07:14:36.605Z,7.27
2018-12-31T07:17:05.232Z,7.07
2018-12-31T07:19:33.897Z,7.53
2018-12-31T07:22:02.556Z,7.57
2018-12-31T07:24:31.264Z,8.23
2018-12-31T07:27:00.135Z,8.10
2018-12-31T07:29:29.009Z,8.53
2018-12-31T07:31:57.445Z,7.93
2018-12-31T07:34:25.947Z,8.57
2018-12-31T07:36:54.635Z,8.57
2018-12-31T07:39:23.330Z,8.83
2018-12-31T07:41:52.187Z,9.60
2018-12-31T07:44:22.944Z,9.03
2018-12-31T07:46:53.661Z,8.43
2018-12-31T07:49:22.252Z,8.40
2018-12-31T07:51:50.942Z,8.53
2018-12-31T07:54:19.603Z,7.97
2018-12-31T07:56:48.176Z,8.80
2018-12-31T07:59:16.652Z,9.77
2018-12-31T08:01:46.330Z,10.17
2018-12-31T08:04:16.082Z,9.80
2018-12-31T08:06:44.965Z,9.40
2018-12-31T08:09:13.510Z,8.97
2018-12-31T08:11:42.209Z,9.00
2018-12-31T08:14:10.990Z,9.90
2018-12-31T08:16:39.837Z,14.30
2018-12-31T08:19:08.743Z,12.77
2018-12-31T08:21:40.279Z,12.77
2018-12-31T08:24:09.082Z,14.10
2018-12-31T08:26:41.387Z,10.93
2018-12-31T08:29:16.346Z,10.20
2018-12-31T08:31:46.793Z,12.20
2018-12-31T08:34:15.503Z,10.77
2018-12-31T08:36:44.221Z,11.30
2018-12-31T08:39:12.844Z,11.43
2018-12-31T08:41:45.063Z,13.70
2018-12-31T08:44:13.763Z,11.10
2018-12-31T08:46:42.980Z,10.90
2018-12-31T08:49:11.757Z,12.50
2018-12-31T08:51:40.435Z,14.63
2018-12-31T08:54:10.517Z,14.20
2018-12-31T08:56:39.030Z,13.17
2018-12-31T08:59:08.588Z,12.93
2018-12-31T09:01:37.191Z,14.73
2018-12-31T09:04:05.755Z,16.60
2018-12-31T09:06:34.334Z,14.47
2018-12-31T09:09:03.679Z,13.30
2018-12-31T09:11:32.195Z,17.93
2018-12-31T09:14:00.781Z,14.30
2018-12-31T09:16:29.509Z,12.90
2018-12-31T09:18:58.133Z,15.60
2018-12-31T09:21:26.955Z,13.83
2018-12-31T09:23:55.445Z,17.07
2018-12-31T09:26:24.436Z,17.23
2018-12-31T09:28:53.424Z,14.30
2018-12-31T09:31:24.733Z,13.53
2018-12-31T09:33:53.654Z,13.57
2018-12-31T09:36:22.442Z,13.37
2018-12-31T09:38:51.240Z,14.43
2018-12-31T09:41:19.867Z,12.17
2018-12-31T09:43:48.747Z,12.37
2018-12-31T09:46:18.423Z,13.13
2018-12-31T09:48:47.341Z,14.03
2018-12-31T09:51:16.295Z,14.43
2018-12-31T09:53:45.064Z,13.17
2018-12-31T09:56:16.192Z,11.13
2018-12-31T09:58:45.240Z,11.07
2018-12-31T10:01:14.211Z,12.47
2018-12-31T10:03:43.057Z,11.53
2018-12-31T10:06:16.090Z,9.73
2018-12-31T10:08:56.386Z,10.70
2018-12-31T10:11:26.800Z,13.57
2018-12-31T10:13:55.719Z,11.50
2018-12-31T10:16:28.372Z,11.20
2018-12-31T10:18:57.306Z,10.07
2018-12-31T10:21:27.331Z,9.60
2018-12-31T10:23:56.257Z,9.57
2018-12-31T10:26:25.503Z,12.73
2018-12-31T10:28:56.011Z,12.33
2018-12-31T10:31:26.502Z,11.90
2018-12-31T15:02:37.303Z,9.90
2018-12-31T15:08:46.667Z,10.30
2018-12-31T15:11:17.800Z,11.23
2018-12-31T15:13:53.580Z,8.70
2018-12-31T15:16:25.228Z,9.03
2018-12-31T15:21:55.083Z,11.07
2018-12-31T15:25:13.190Z,13.20
2018-12-31T15:31:24.911Z,10.07
2018-12-31T15:33:53.612Z,9.27
2018-12-31T15:36:22.463Z,9.60
2018-12-31T15:38:55.662Z,10.33
2018-12-31T15:41:27.602Z,10.93
2018-12-31T15:43:57.596Z,9.47
2018-12-31T15:46:26.617Z,10.60
2018-12-31T15:48:55.578Z,10.43
2018-12-31T15:51:24.354Z,11.87
2018-12-31T15:53:53.466Z,12.17
2018-12-31T15:56:27.461Z,8.30
2018-12-31T15:58:53.538Z,10.33
2018-12-31T16:01:22.672Z,11.50
2018-12-31T16:03:51.658Z,12.47
2018-12-31T16:06:21.889Z,9.90
2018-12-31T16:08:53.174Z,11.90
2018-12-31T16:11:43.916Z,15.70
2018-12-31T16:19:37.132Z,21.63
2018-12-31T16:22:11.583Z,19.03
2018-12-31T16:24:22.782Z,16.63
2018-12-31T16:26:58.950Z,14.63
2018-12-31T16:29:27.757Z,14.47
2018-12-31T16:31:57.020Z,15.80
2018-12-31T16:34:31.876Z,19.90
2018-12-31T16:37:02.306Z,24.03
2018-12-31T16:39:32.355Z,25.40
2018-12-31T16:42:01.424Z,27.57
2018-12-31T16:44:30.426Z,23.37
2018-12-31T16:47:20.506Z,19.83
2018-12-31T16:49:49.900Z,23.20
2018-12-31T16:52:20.122Z,25.17
2018-12-31T16:54:49.244Z,40.60
2018-12-31T17:01:15.226Z,21.07
2018-12-31T17:04:39.684Z,33.13
2018-12-31T17:13:46.230Z,21.43
2018-12-31T17:16:18.670Z,23.10
2018-12-31T17:18:57.861Z,25.37
2018-12-31T17:24:18.183Z,21.80
2018-12-31T17:27:00.806Z,19.77
2018-12-31T17:29:29.976Z,19.30
2018-12-31T17:32:01.014Z,20.00
2018-12-31T17:34:54.586Z,19.70
2018-12-31T17:37:15.861Z,19.20
2018-12-31T17:39:53.701Z,19.53
2018-12-31T17:42:26.114Z,20.40
2018-12-31T17:45:07.564Z,20.00
2018-12-31T17:47:40.802Z,24.40
2018-12-31T17:50:37.875Z,23.97
2018-12-31T17:53:06.800Z,23.70
2018-12-31T17:55:42.567Z,22.00
2018-12-31T17:58:16.354Z,22.50
2018-12-31T18:00:52.112Z,22.20
2018-12-31T18:03:21.019Z,27.30
2018-12-31T18:05:51.475Z,26.43
2018-12-31T18:08:20.016Z,37.23
2018-12-31T18:10:51.417Z,42.17
2018-12-31T18:16:18.816Z,31.47
2018-12-31T18:18:47.364Z,31.27
2018-12-31T18:21:16.323Z,30.80
2018-12-31T18:23:46.448Z,27.23
2018-12-31T18:26:56.025Z,26.80
2018-12-31T18:29:32.539Z,25.47
2018-12-31T18:32:06.371Z,27.10
2018-12-31T18:34:37.093Z,26.83
2018-12-31T18:37:06.297Z,24.87
2018-12-31T18:39:35.544Z,26.87
2018-12-31T18:42:18.586Z,26.63
2018-12-31T18:44:41.332Z,23.03
2018-12-31T18:47:10.042Z,27.33
2018-12-31T18:49:38.995Z,24.33
2018-12-31T18:52:17.443Z,26.90
2018-12-31T18:54:51.940Z,21.03
2018-12-31T18:57:21.033Z,22.67
2018-12-31T19:00:00.542Z,24.80
2018-12-31T19:02:38.253Z,22.20
2018-12-31T19:05:35.627Z,23.13
2018-12-31T19:08:05.172Z,31.77
2018-12-31T19:10:35.423Z,30.50
2018-12-31T19:13:08.433Z,39.67
2018-12-31T19:15:45.712Z,28.03
2018-12-31T19:18:12.316Z,27.80
2018-12-31T19:21:05.636Z,31.47
2018-12-31T19:24:20.249Z,31.50
2018-12-31T19:27:10.706Z,25.13
2018-12-31T19:29:49.073Z,24.83
2018-12-31T19:32:19.518Z,24.93
2018-12-31T19:34:48.122Z,25.23
2018-12-31T19:37:27.775Z,20.93
2018-12-31T19:39:56.498Z,23.97
2018-12-31T19:42:28.437Z,24.83
2018-12-31T19:45:25.736Z,23.47
2018-12-31T19:47:55.965Z,23.00
2018-12-31T19:50:24.806Z,25.40
2018-12-31T19:52:54.346Z,27.57
2018-12-31T19:55:36.617Z,24.53
2018-12-31T19:58:05.225Z,26.77
2018-12-31T20:00:41.817Z,25.13
2018-12-31T20:03:26.953Z,24.50
2018-12-31T20:05:57.682Z,28.53
2018-12-31T20:08:55.669Z,25.70
2018-12-31T20:11:26.294Z,31.97
2018-12-31T20:13:55.256Z,28.77
2018-12-31T20:16:52.718Z,28.73
2018-12-31T20:19:23.979Z,30.63
2018-12-31T20:22:01.043Z,57.93
2018-12-31T20:24:43.982Z,35.60
2018-12-31T20:27:47.299Z,32.17
2018-12-31T20:30:29.916Z,34.77
2018-12-31T20:33:05.251Z,33.47
2018-12-31T20:35:48.585Z,30.33
2018-12-31T20:38:10.375Z,28.70
2018-12-31T20:40:49.803Z,32.30
2018-12-31T20:43:23.492Z,28.27
2018-12-31T20:46:01.401Z,24.47
2018-12-31T20:48:33.858Z,24.07
2018-12-31T20:51:07.469Z,24.77
2018-12-31T20:54:18.239Z,29.03
2018-12-31T20:57:05.407Z,37.73
2018-12-31T21:00:01.512Z,27.27
2018-12-31T21:02:31.231Z,24.77
2018-12-31T21:05:11.546Z,20.43
2018-12-31T21:08:02.991Z,21.87
2018-12-31T21:10:36.706Z,22.10
2018-12-31T21:13:08.810Z,22.53
2018-12-31T21:15:57.555Z,25.47
